createdAt,value
2022-09-02T00:03:38.811Z,44.23
2022-09-02T00:08:45.027Z,44.73
2022-09-02T00:13:51.991Z,44.27
2022-09-02T00:18:58.736Z,44.17
2022-09-02T00:24:06.091Z,44.25
2022-09-02T00:29:14.688Z,44.20
2022-09-02T00:34:20.967Z,44.17
2022-09-02T00:39:26.536Z,43.50
2022-09-02T00:44:32.158Z,44.55
2022-09-02T00:49:40.354Z,44.43
2022-09-02T00:54:49.063Z,44.73
2022-09-02T01:00:19.265Z,43.50
2022-09-02T01:05:27.355Z,43.67
2022-09-02T01:10:35.158Z,43.63
2022-09-02T01:15:44.433Z,43.60
2022-09-02T01:20:50.259Z,43.60
2022-09-02T01:25:56.269Z,43.87
2022-09-02T01:31:01.856Z,43.97
2022-09-02T01:36:08.993Z,43.77
2022-09-02T01:41:15.257Z,43.35
2022-09-02T01:46:21.431Z,43.50
2022-09-02T01:51:26.904Z,43.67
2022-09-02T01:56:32.246Z,43.83
2022-09-02T02:01:38.067Z,43.93
2022-09-02T02:06:45.951Z,44.13
2022-09-02T02:11:53.085Z,43.70
2022-09-02T02:16:58.619Z,43.33
2022-09-02T02:22:04.321Z,43.17
2022-09-02T02:27:09.282Z,42.83
2022-09-02T02:32:14.539Z,43.43
2022-09-02T02:37:25.505Z,43.90
2022-09-02T02:42:29.198Z,45.07
2022-09-02T02:47:35.298Z,43.87
2022-09-02T02:52:42.003Z,42.97
2022-09-02T02:57:47.761Z,43.63
2022-09-02T03:02:58.688Z,43.50
2022-09-02T03:08:06.048Z,43.17
2022-09-02T03:13:13.353Z,42.95
2022-09-02T03:18:19.250Z,43.53
2022-09-02T03:23:24.339Z,43.33
2022-09-02T03:28:30.424Z,42.70
2022-09-02T03:33:36.802Z,43.00
2022-09-02T03:38:42.665Z,42.73
2022-09-02T03:43:48.284Z,43.03
2022-09-02T03:48:53.797Z,43.23
2022-09-02T03:53:59.244Z,42.90
2022-09-02T03:59:06.042Z,43.02
2022-09-02T04:04:12.891Z,43.80
2022-09-02T04:09:18.662Z,43.15
2022-09-02T04:14:23.760Z,43.67
2022-09-02T04:19:28.972Z,43.40
2022-09-02T04:24:34.617Z,42.93
2022-09-02T04:29:39.626Z,42.67
2022-09-02T04:34:45.885Z,42.47
2022-09-02T04:39:52.704Z,42.50
2022-09-02T04:44:58.240Z,42.10
2022-09-02T04:50:03.255Z,42.10
2022-09-02T04:55:08.978Z,42.47
2022-09-02T05:00:15.508Z,42.87
2022-09-02T05:05:20.534Z,42.87
2022-09-02T05:10:26.189Z,42.63
2022-09-02T05:15:32.845Z,43.45
2022-09-02T05:20:44.539Z,44.07
2022-09-02T05:25:49.509Z,43.67
2022-09-02T05:30:56.093Z,44.93
2022-09-02T05:41:10.261Z,45.47
2022-09-02T05:46:18.746Z,44.73
2022-09-02T05:51:26.028Z,45.57
2022-09-02T05:56:32.338Z,45.67
2022-09-02T06:01:38.942Z,44.90
2022-09-02T06:06:45.325Z,45.23
2022-09-02T06:11:52.700Z,46.13
2022-09-02T06:17:00.325Z,46.53
2022-09-02T06:22:06.993Z,46.37
2022-09-02T06:27:12.339Z,46.57
2022-09-02T06:32:18.017Z,46.95
2022-09-02T06:37:24.049Z,46.83
2022-09-02T06:42:29.554Z,48.13
2022-09-02T06:47:34.794Z,48.17
2022-09-02T06:52:40.614Z,48.03
2022-09-02T06:57:46.782Z,46.63
2022-09-02T07:02:54.364Z,47.27
2022-09-02T07:07:59.586Z,51.55
2022-09-02T07:13:04.951Z,48.77
2022-09-02T07:18:10.014Z,50.03
2022-09-02T07:23:17.137Z,47.10
2022-09-02T07:28:23.273Z,48.67
2022-09-02T07:33:29.137Z,49.10
2022-09-02T07:38:35.121Z,48.23
2022-09-02T07:43:41.905Z,47.90
2022-09-02T07:48:49.310Z,49.67
2022-09-02T07:53:54.841Z,50.57
2022-09-02T07:59:00.512Z,51.73
2022-09-02T08:04:07.495Z,49.48
2022-09-02T08:09:13.990Z,50.77
2022-09-02T08:14:26.206Z,48.80
2022-09-02T08:19:32.799Z,48.70
2022-09-02T08:24:37.826Z,48.00
2022-09-02T08:29:43.550Z,48.27
2022-09-02T08:34:48.567Z,48.00
2022-09-02T08:39:53.887Z,49.30
2022-09-02T08:45:02.588Z,47.45
2022-09-02T08:50:14.721Z,47.53
2022-09-02T08:55:25.095Z,47.35
2022-09-02T09:00:33.924Z,47.05
2022-09-02T09:05:54.494Z,47.27
2022-09-02T09:11:09.293Z,47.23
2022-09-02T09:16:33.588Z,47.07
2022-09-02T09:21:40.867Z,46.70
2022-09-02T09:26:47.875Z,46.83
2022-09-02T09:32:00.202Z,47.63
2022-09-02T09:37:05.970Z,47.40
2022-09-02T09:42:14.858Z,47.17
2022-09-02T09:47:23.259Z,47.10
2022-09-02T09:52:32.449Z,46.90
2022-09-02T09:57:38.058Z,46.67
2022-09-02T10:02:52.780Z,46.80
2022-09-02T10:08:10.130Z,47.27
2022-09-02T10:13:28.901Z,47.00
2022-09-02T10:18:43.175Z,47.45
2022-09-02T10:23:56.985Z,47.33
2022-09-02T10:29:25.317Z,47.13
2022-09-02T10:34:36.269Z,47.13
2022-09-02T10:40:01.388Z,46.80
2022-09-02T10:45:26.064Z,46.73
2022-09-02T10:50:37.494Z,46.93
2022-09-02T10:55:50.674Z,47.13
2022-09-02T11:00:58.285Z,47.00
2022-09-02T11:06:07.793Z,47.80
2022-09-02T11:11:22.604Z,47.33
2022-09-02T11:16:44.288Z,47.20
2022-09-02T11:22:08.044Z,47.20
2022-09-02T11:27:39.089Z,47.13
2022-09-02T11:32:32.755Z,47.37
2022-09-02T11:37:44.441Z,46.90
2022-09-02T11:43:23.791Z,46.68
2022-09-02T11:48:55.469Z,46.93
2022-09-02T11:54:04.758Z,47.33
2022-09-02T11:59:13.721Z,46.70
2022-09-02T12:04:58.829Z,46.75
2022-09-02T12:09:50.079Z,47.30
2022-09-02T12:15:02.491Z,47.50
2022-09-02T12:20:14.169Z,47.17
2022-09-02T12:25:32.843Z,47.67
2022-09-02T12:31:04.051Z,47.47
2022-09-02T12:36:11.001Z,47.10
2022-09-02T12:41:23.130Z,47.73
2022-09-02T12:46:50.080Z,47.70
2022-09-02T12:51:58.221Z,47.40
2022-09-02T12:57:05.566Z,47.27
2022-09-02T13:02:20.710Z,47.78
2022-09-02T13:07:35.262Z,47.50
2022-09-02T13:13:00.727Z,47.45
2022-09-02T13:18:14.600Z,47.40
2022-09-02T13:23:40.201Z,47.30
2022-09-02T13:29:01.229Z,47.63
2022-09-02T13:34:14.686Z,47.37
2022-09-02T13:39:21.712Z,47.17
2022-09-02T13:44:29.839Z,47.38
2022-09-02T13:49:38.121Z,47.43
2022-09-02T13:54:46.441Z,48.03
2022-09-02T13:59:55.127Z,47.87
2022-09-02T14:05:08.895Z,47.77
2022-09-02T14:10:17.933Z,47.35
2022-09-02T14:15:31.924Z,47.77
2022-09-02T14:20:41.082Z,47.10
2022-09-02T14:25:56.786Z,47.53
2022-09-02T14:31:10.438Z,47.50
2022-09-02T14:36:19.942Z,48.00
2022-09-02T14:41:30.741Z,48.40
2022-09-02T14:46:40.243Z,47.80
2022-09-02T14:51:59.485Z,47.40
2022-09-02T14:57:06.806Z,47.50
2022-09-02T15:02:27.899Z,47.27
2022-09-02T15:07:33.719Z,47.33
2022-09-02T15:12:48.589Z,46.87
2022-09-02T15:17:54.647Z,47.10
2022-09-02T15:23:00.764Z,47.20
2022-09-02T15:28:07.331Z,47.53
2022-09-02T15:33:16.954Z,47.40
2022-09-02T15:38:20.966Z,47.47
2022-09-02T15:43:26.827Z,47.15
2022-09-02T15:48:33.622Z,47.40
2022-09-02T15:53:39.802Z,47.30
2022-09-02T15:58:47.398Z,47.00
2022-09-02T16:03:54.048Z,48.98
2022-09-02T16:08:59.826Z,53.00
2022-09-02T16:14:05.452Z,47.97
2022-09-02T16:19:11.602Z,47.67
2022-09-02T16:24:18.950Z,47.43
2022-09-02T16:29:26.171Z,47.70
2022-09-02T16:34:33.514Z,47.75
2022-09-02T16:39:41.221Z,47.70
2022-09-02T16:44:51.622Z,47.40
2022-09-02T16:49:57.490Z,47.63
2022-09-02T16:55:02.867Z,47.43
2022-09-02T17:00:10.838Z,47.33
2022-09-02T17:05:18.052Z,46.83
2022-09-02T17:10:23.268Z,47.03
2022-09-02T17:15:30.034Z,47.27
2022-09-02T17:20:36.159Z,47.53
2022-09-02T17:25:42.997Z,48.10
2022-09-02T17:30:48.511Z,46.55
2022-09-02T17:35:58.970Z,46.60
2022-09-02T17:41:22.645Z,46.70
2022-09-02T17:46:27.990Z,46.40
2022-09-02T17:51:34.774Z,46.10
2022-09-02T17:56:59.381Z,46.57
2022-09-02T18:02:14.953Z,46.43
2022-09-02T18:07:52.056Z,46.77
2022-09-02T18:18:05.637Z,46.13
2022-09-02T18:23:17.277Z,46.63
2022-09-02T18:28:34.617Z,46.73
2022-09-02T18:33:55.526Z,47.17
2022-09-02T18:39:27.108Z,47.27
2022-09-02T18:44:58.720Z,47.30
2022-09-02T18:50:06.749Z,46.73
2022-09-02T18:55:15.615Z,46.50
2022-09-02T19:00:23.094Z,46.96
2022-09-02T19:05:32.448Z,47.53
2022-09-02T19:10:43.357Z,46.78
2022-09-02T19:15:50.503Z,47.37
2022-09-02T19:21:01.156Z,47.33
2022-09-02T19:26:07.861Z,47.13
2022-09-02T19:31:27.184Z,46.92
2022-09-02T19:36:36.649Z,47.77
2022-09-02T19:41:43.640Z,47.30
2022-09-02T19:47:42.314Z,47.43
2022-09-02T19:52:02.213Z,47.23
2022-09-02T19:57:08.686Z,46.88
2022-09-02T20:02:16.853Z,47.35
2022-09-02T20:07:23.888Z,46.75
2022-09-02T20:12:32.898Z,47.03
2022-09-02T20:17:38.943Z,46.10
2022-09-02T20:22:46.095Z,47.00
2022-09-02T20:28:14.733Z,46.33
2022-09-02T20:33:23.385Z,46.77
2022-09-02T20:38:52.542Z,46.10
2022-09-02T20:44:16.820Z,46.30
2022-09-02T20:49:48.643Z,46.48
2022-09-02T20:54:57.848Z,45.97
2022-09-02T21:00:13.910Z,46.50
2022-09-02T21:05:22.837Z,45.60
2022-09-02T21:10:37.379Z,46.67
2022-09-02T21:15:57.334Z,46.20
2022-09-02T21:21:08.081Z,45.88
2022-09-02T21:26:38.112Z,46.03
2022-09-02T21:31:47.230Z,46.53
2022-09-02T21:36:56.369Z,46.57
2022-09-02T21:42:19.708Z,46.30
2022-09-02T21:47:36.646Z,46.03
2022-09-02T21:52:56.993Z,46.20
2022-09-02T21:58:36.262Z,45.90
2022-09-02T22:03:53.465Z,45.93
2022-09-02T22:09:08.989Z,45.97
2022-09-02T22:14:16.655Z,45.77
2022-09-02T22:19:26.913Z,45.80
2022-09-02T22:24:33.711Z,45.38
2022-09-02T22:29:50.941Z,45.77
2022-09-02T22:34:59.277Z,45.27
2022-09-02T22:40:08.057Z,46.13
2022-09-02T22:45:40.541Z,45.95
2022-09-02T22:51:06.591Z,45.37
2022-09-02T22:56:13.541Z,45.08
2022-09-02T23:01:32.639Z,45.10
2022-09-02T23:06:39.106Z,45.03
2022-09-02T23:17:16.464Z,45.48
2022-09-02T23:22:46.845Z,45.43
2022-09-02T23:27:55.897Z,45.04
2022-09-02T23:33:13.450Z,44.97
2022-09-02T23:38:39.988Z,45.00
2022-09-02T23:43:46.631Z,45.15
2022-09-02T23:49:06.128Z,45.15
2022-09-02T23:54:26.664Z,44.77
